createdAt,value
2017-07-19T00:00:07.371Z,19.1
2017-07-19T00:01:07.347Z,19.12
2017-07-19T00:02:07.334Z,19.09
2017-07-19T00:03:07.311Z,19.12
2017-07-19T00:04:06.986Z,19.13
2017-07-19T00:05:07.289Z,19.05
2017-07-19T00:06:07.357Z,19.07
2017-07-19T00:07:07.234Z,19.12
2017-07-19T00:08:07.206Z,19.09
2017-07-19T00:09:07.201Z,19.1
2017-07-19T00:10:07.170Z,19.01
2017-07-19T00:11:07.152Z,19.15
2017-07-19T00:12:07.132Z,19.09
2017-07-19T00:13:07.112Z,18.96
2017-07-19T00:14:06.793Z,18.99
2017-07-19T00:15:07.088Z,19.06
2017-07-19T00:16:07.054Z,18.99
2017-07-19T00:17:07.034Z,18.96
2017-07-19T00:18:07.014Z,18.89
2017-07-19T00:19:06.994Z,18.99
2017-07-19T00:20:06.977Z,18.94
2017-07-19T00:21:06.951Z,19.05
2017-07-19T00:22:06.986Z,18.93
2017-07-19T00:23:06.610Z,18.99
2017-07-19T00:24:06.896Z,18.97
2017-07-19T00:25:06.877Z,18.87
2017-07-19T00:26:06.857Z,18.99
2017-07-19T00:27:06.836Z,18.97
2017-07-19T00:28:06.815Z,18.97
2017-07-19T00:29:06.793Z,18.99
2017-07-19T00:30:06.786Z,19.05
2017-07-19T00:31:06.753Z,18.93
2017-07-19T00:32:06.737Z,18.86
2017-07-19T00:33:06.720Z,18.91
2017-07-19T00:34:06.393Z,18.94
2017-07-19T00:35:06.681Z,18.86
2017-07-19T00:36:06.663Z,18.96
2017-07-19T00:37:06.639Z,18.97
2017-07-19T00:38:06.620Z,18.97
2017-07-19T00:39:06.631Z,19.01
2017-07-19T00:40:06.583Z,18.93
2017-07-19T00:41:06.553Z,18.91
2017-07-19T00:42:06.542Z,18.96
2017-07-19T00:43:06.517Z,18.86
2017-07-19T00:44:06.548Z,18.84
2017-07-19T00:45:06.488Z,18.83
2017-07-19T00:46:06.153Z,18.89
2017-07-19T00:47:06.441Z,18.86
2017-07-19T00:48:06.417Z,18.78
2017-07-19T00:49:06.394Z,18.76
2017-07-19T00:50:06.078Z,18.76
2017-07-19T00:51:06.363Z,18.83
2017-07-19T00:52:06.333Z,18.82
2017-07-19T00:53:06.320Z,18.79
2017-07-19T00:54:06.306Z,18.82
2017-07-19T00:55:06.279Z,18.78
2017-07-19T00:56:06.257Z,18.75
2017-07-19T00:57:06.241Z,18.71
2017-07-19T00:58:06.219Z,18.79
2017-07-19T00:59:06.196Z,18.71
2017-07-19T01:00:06.187Z,18.75
2017-07-19T01:01:06.155Z,18.75
2017-07-19T01:02:06.141Z,18.71
2017-07-19T01:03:06.120Z,18.62
2017-07-19T01:04:06.107Z,18.66
2017-07-19T01:05:06.085Z,18.6
2017-07-19T01:06:06.059Z,18.64
2017-07-19T01:07:06.039Z,18.68
2017-07-19T01:08:06.220Z,18.68
2017-07-19T01:09:06.161Z,18.59
2017-07-19T01:10:05.975Z,18.62
2017-07-19T01:11:05.659Z,18.65
2017-07-19T01:12:05.940Z,18.64
2017-07-19T01:13:05.918Z,18.69
2017-07-19T01:14:05.895Z,18.6
2017-07-19T01:15:05.879Z,18.64
2017-07-19T01:16:05.862Z,18.59
2017-07-19T01:17:05.834Z,18.54
2017-07-19T01:18:05.819Z,18.75
2017-07-19T01:19:05.803Z,18.65
2017-07-19T01:20:05.780Z,18.6
2017-07-19T01:21:05.762Z,18.57
2017-07-19T01:22:05.741Z,18.64
2017-07-19T01:23:05.445Z,18.66
2017-07-19T01:24:05.700Z,18.65
2017-07-19T01:25:05.681Z,18.6
2017-07-19T01:26:05.655Z,18.66
2017-07-19T01:27:05.775Z,18.65
2017-07-19T01:28:05.620Z,18.62
2017-07-19T01:29:05.598Z,18.62
2017-07-19T01:30:05.581Z,18.64
2017-07-19T01:31:05.568Z,18.6
2017-07-19T01:32:05.545Z,18.66
2017-07-19T01:33:05.522Z,18.66
2017-07-19T01:34:05.516Z,18.54
2017-07-19T01:35:05.483Z,18.64
2017-07-19T01:36:05.492Z,18.65
2017-07-19T01:37:05.435Z,18.6
2017-07-19T01:38:05.424Z,18.64
2017-07-19T01:39:05.397Z,18.66
2017-07-19T01:40:05.386Z,18.65
2017-07-19T01:41:05.358Z,18.66
2017-07-19T01:42:05.339Z,18.57
2017-07-19T01:43:05.317Z,18.6
2017-07-19T01:44:05.306Z,18.66
2017-07-19T01:45:05.277Z,18.64
2017-07-19T01:46:05.266Z,18.6
2017-07-19T01:47:05.247Z,18.53
2017-07-19T01:48:05.220Z,18.53
2017-07-19T01:49:05.201Z,18.6
2017-07-19T01:50:05.187Z,18.64
2017-07-19T01:51:05.158Z,18.56
2017-07-19T01:52:05.133Z,18.56
2017-07-19T01:53:05.120Z,18.6
2017-07-19T01:54:05.100Z,18.59
2017-07-19T01:55:05.080Z,18.56
2017-07-19T01:56:05.061Z,18.54
2017-07-19T01:57:05.098Z,18.57
2017-07-19T01:58:05.018Z,18.54
2017-07-19T01:59:04.998Z,18.56
2017-07-19T02:00:04.983Z,18.57
2017-07-19T02:01:04.956Z,18.56
2017-07-19T02:02:04.941Z,18.54
2017-07-19T02:03:04.617Z,18.56
2017-07-19T02:04:04.609Z,18.56
2017-07-19T02:05:04.883Z,18.54
2017-07-19T02:06:04.854Z,18.57
2017-07-19T02:07:04.841Z,18.56
2017-07-19T02:08:04.517Z,18.57
2017-07-19T02:09:04.796Z,18.54
2017-07-19T02:10:04.495Z,18.53
2017-07-19T02:11:04.764Z,18.5
2017-07-19T02:12:04.437Z,18.53
2017-07-19T02:13:04.415Z,18.5
2017-07-19T02:14:04.702Z,18.46
2017-07-19T02:15:04.691Z,18.47
2017-07-19T02:16:04.658Z,18.56
2017-07-19T02:17:04.642Z,18.51
2017-07-19T02:18:04.625Z,18.51
2017-07-19T02:19:04.598Z,18.53
2017-07-19T02:20:04.585Z,18.38
2017-07-19T02:21:04.558Z,18.35
2017-07-19T02:22:04.540Z,18.41
2017-07-19T02:23:04.553Z,18.38
2017-07-19T02:24:04.203Z,18.39
2017-07-19T02:25:04.485Z,18.41
2017-07-19T02:26:04.455Z,18.38
2017-07-19T02:27:04.503Z,18.39
2017-07-19T02:28:04.476Z,18.41
2017-07-19T02:29:04.394Z,18.42
2017-07-19T02:30:04.391Z,18.41
2017-07-19T02:31:04.362Z,18.41
2017-07-19T02:32:04.339Z,18.42
2017-07-19T02:33:04.321Z,18.42
2017-07-19T02:34:04.292Z,18.36
2017-07-19T02:35:04.343Z,18.38
2017-07-19T02:36:04.250Z,18.41
2017-07-19T02:37:03.937Z,18.36
2017-07-19T02:38:04.223Z,18.31
2017-07-19T02:39:03.908Z,18.35
2017-07-19T02:40:04.179Z,18.35
2017-07-19T02:41:04.155Z,18.36
2017-07-19T02:42:04.138Z,18.35
2017-07-19T02:43:04.116Z,18.31
2017-07-19T02:44:03.854Z,18.34
2017-07-19T02:45:04.189Z,18.35
2017-07-19T02:46:04.077Z,18.34
2017-07-19T02:47:04.038Z,18.36
2017-07-19T02:48:04.019Z,18.32
2017-07-19T02:49:04.004Z,18.36
2017-07-19T02:50:04.022Z,18.41
2017-07-19T02:51:03.954Z,18.39
2017-07-19T02:52:03.950Z,18.31
2017-07-19T02:53:03.923Z,18.36
2017-07-19T02:54:03.598Z,18.32
2017-07-19T02:55:03.879Z,18.31
2017-07-19T02:56:03.855Z,18.35
2017-07-19T02:57:03.842Z,18.34
2017-07-19T02:58:03.821Z,18.31
2017-07-19T02:59:03.795Z,18.32
2017-07-19T03:00:03.777Z,18.38
2017-07-19T03:01:03.756Z,18.31
2017-07-19T03:02:03.733Z,18.28
2017-07-19T03:03:03.714Z,18.31
2017-07-19T03:04:03.750Z,18.32
2017-07-19T03:05:03.677Z,18.28
2017-07-19T03:06:03.655Z,18.31
2017-07-19T03:07:03.639Z,18.23
2017-07-19T03:08:03.618Z,18.32
2017-07-19T03:09:03.598Z,18.31
2017-07-19T03:10:03.627Z,18.32
2017-07-19T03:11:03.557Z,18.28
2017-07-19T03:12:03.533Z,18.31
2017-07-19T03:13:03.213Z,18.26
2017-07-19T03:14:03.492Z,18.29
2017-07-19T03:15:03.474Z,18.25
2017-07-19T03:16:03.459Z,18.23
2017-07-19T03:17:03.436Z,18.23
2017-07-19T03:18:03.410Z,18.25
2017-07-19T03:19:03.148Z,18.21
2017-07-19T03:20:03.392Z,18.21
2017-07-19T03:21:03.371Z,18.16
2017-07-19T03:22:03.332Z,18.23
2017-07-19T03:23:03.362Z,18.17
2017-07-19T03:24:03.295Z,18.17
2017-07-19T03:25:02.974Z,18.16
2017-07-19T03:26:02.950Z,18.21
2017-07-19T03:27:03.247Z,18.2
2017-07-19T03:28:03.213Z,18.21
2017-07-19T03:29:03.193Z,18.19
2017-07-19T03:30:02.870Z,18.2
2017-07-19T03:31:03.159Z,18.19
2017-07-19T03:32:03.130Z,18.19
2017-07-19T03:33:02.822Z,18.21
2017-07-19T03:34:03.133Z,18.13
2017-07-19T03:35:03.078Z,18.16
2017-07-19T03:36:03.052Z,18.25
2017-07-19T03:37:03.084Z,18.28
2017-07-19T03:38:03.008Z,18.21
2017-07-19T03:39:02.993Z,18.19
2017-07-19T03:40:02.669Z,18.28
2017-07-19T03:41:02.954Z,18.26
2017-07-19T03:42:02.935Z,18.28
2017-07-19T03:43:02.908Z,18.28
2017-07-19T03:44:02.897Z,18.31
2017-07-19T03:45:02.873Z,18.29
2017-07-19T03:46:02.870Z,18.28
2017-07-19T03:47:02.834Z,18.31
2017-07-19T03:48:02.514Z,18.23
2017-07-19T03:49:02.802Z,18.32
2017-07-19T03:50:02.788Z,18.32
2017-07-19T03:51:02.758Z,18.35
2017-07-19T03:52:02.729Z,18.26
2017-07-19T03:53:02.718Z,18.38
2017-07-19T03:54:02.697Z,18.36
2017-07-19T03:55:02.674Z,18.36
2017-07-19T03:56:02.652Z,18.32
2017-07-19T03:57:02.629Z,18.36
2017-07-19T03:58:02.609Z,18.36
2017-07-19T03:59:02.586Z,18.51
2017-07-19T04:00:02.570Z,18.38
2017-07-19T04:01:02.547Z,18.44
2017-07-19T04:02:02.533Z,18.49
2017-07-19T04:03:02.502Z,18.57
2017-07-19T04:04:02.495Z,18.56
2017-07-19T04:05:02.472Z,18.51
2017-07-19T04:06:02.452Z,18.51
2017-07-19T04:07:02.429Z,18.59
2017-07-19T04:08:02.406Z,18.51
2017-07-19T04:09:02.095Z,18.6
2017-07-19T04:10:02.365Z,18.64
2017-07-19T04:11:02.350Z,18.65
2017-07-19T04:12:02.319Z,18.56
2017-07-19T04:13:02.308Z,18.64
2017-07-19T04:14:02.284Z,18.72
2017-07-19T04:15:02.271Z,18.74
2017-07-19T04:16:02.253Z,18.83
2017-07-19T04:17:02.227Z,18.94
2017-07-19T04:18:01.914Z,18.97
2017-07-19T04:19:02.185Z,19.07
2017-07-19T04:20:02.175Z,19.12
2017-07-19T04:21:02.152Z,19.3
2017-07-19T04:22:02.136Z,19.17
2017-07-19T04:23:02.112Z,19.25
2017-07-19T04:24:02.104Z,19.32
2017-07-19T04:25:01.767Z,19.31
2017-07-19T04:26:02.060Z,19.43
2017-07-19T04:27:02.029Z,19.31
2017-07-19T04:28:02.016Z,19.35
2017-07-19T04:29:01.992Z,19.32
2017-07-19T04:30:01.982Z,19.25
2017-07-19T04:31:01.665Z,19.24
2017-07-19T04:32:01.928Z,19.3
2017-07-19T04:33:01.915Z,19.31
2017-07-19T04:34:01.899Z,19.43
2017-07-19T04:35:01.875Z,19.55
2017-07-19T04:36:01.865Z,19.57
2017-07-19T04:37:01.834Z,19.53
2017-07-19T04:38:01.815Z,19.62
2017-07-19T04:39:01.798Z,19.65
2017-07-19T04:40:01.783Z,19.82
2017-07-19T04:41:01.969Z,19.86
2017-07-19T04:42:01.742Z,19.82
2017-07-19T04:43:01.727Z,19.82
2017-07-19T04:44:01.727Z,19.83
2017-07-19T04:45:01.685Z,19.75
2017-07-19T04:46:01.669Z,19.78
2017-07-19T04:47:01.644Z,19.8
2017-07-19T04:48:01.631Z,19.8
2017-07-19T04:49:01.610Z,19.8
2017-07-19T04:50:01.585Z,19.86
2017-07-19T04:51:01.574Z,19.92
2017-07-19T04:52:01.559Z,19.98
2017-07-19T04:53:01.529Z,20.07
2017-07-19T04:54:01.512Z,20.22
2017-07-19T04:55:01.488Z,20.3
2017-07-19T04:56:01.474Z,20.27
2017-07-19T04:57:01.154Z,20.34
2017-07-19T04:58:01.435Z,20.41
2017-07-19T04:59:01.414Z,20.5
2017-07-19T05:00:01.394Z,20.71
2017-07-19T05:01:01.079Z,20.73
2017-07-19T05:02:01.056Z,20.9
2017-07-19T05:03:01.342Z,20.96
2017-07-19T05:04:01.325Z,21.16
2017-07-19T05:05:01.305Z,21.26
2017-07-19T05:06:01.291Z,21.28
2017-07-19T05:07:01.025Z,21.24
2017-07-19T05:08:00.950Z,21.31
2017-07-19T05:09:01.231Z,21.49
2017-07-19T05:10:01.216Z,21.63
2017-07-19T05:11:00.910Z,21.73
2017-07-19T05:12:01.190Z,21.79
2017-07-19T05:13:00.859Z,21.82
2017-07-19T05:14:01.147Z,21.91
2017-07-19T05:15:01.130Z,22.14
2017-07-19T05:16:00.806Z,22.23
2017-07-19T05:17:01.089Z,22.11
2017-07-19T05:18:01.070Z,22.23
2017-07-19T05:19:01.054Z,22.08
2017-07-19T05:20:00.740Z,21.99
2017-07-19T05:21:01.075Z,22.04
2017-07-19T05:22:01.007Z,22.11
2017-07-19T05:23:00.984Z,22.26
2017-07-19T05:24:00.983Z,22.42
2017-07-19T05:25:00.960Z,22.54
2017-07-19T05:26:00.631Z,22.51
2017-07-19T05:27:00.919Z,22.42
2017-07-19T05:28:00.608Z,22.48
2017-07-19T05:29:00.887Z,22.48
2017-07-19T05:30:00.868Z,22.46
2017-07-19T05:31:00.854Z,22.59
2017-07-19T05:32:00.832Z,22.46
2017-07-19T05:33:00.598Z,22.49
2017-07-19T05:34:00.801Z,22.46
2017-07-19T05:35:00.794Z,22.72
2017-07-19T05:36:00.764Z,22.88
2017-07-19T05:37:00.759Z,23.03
2017-07-19T05:38:00.733Z,23.14
2017-07-19T05:39:00.416Z,23.19
2017-07-19T05:40:00.706Z,23.35
2017-07-19T05:41:00.684Z,23.45
2017-07-19T05:42:00.679Z,23.57
2017-07-19T05:43:00.650Z,23.68
2017-07-19T05:44:00.635Z,23.71
2017-07-19T05:45:00.325Z,23.56
2017-07-19T05:46:00.620Z,23.47
2017-07-19T05:47:00.597Z,23.56
2017-07-19T05:48:00.271Z,23.62
2017-07-19T05:49:00.559Z,23.6
2017-07-19T05:50:00.255Z,23.62
2017-07-19T05:51:00.222Z,23.78
2017-07-19T05:52:00.510Z,23.97
2017-07-19T05:53:00.490Z,23.99
2017-07-19T05:54:00.181Z,23.87
2017-07-19T05:55:00.473Z,23.97
2017-07-19T05:56:00.456Z,24.09
2017-07-19T05:57:00.132Z,24.14
2017-07-19T05:58:00.415Z,24.16
2017-07-19T05:59:00.449Z,24.21
2017-07-19T06:00:00.391Z,24.14
2017-07-19T06:01:00.380Z,24.04
2017-07-19T06:02:00.362Z,23.97
2017-07-19T06:03:00.042Z,24.12
2017-07-19T06:04:00.326Z,23.97
2017-07-19T06:05:00.059Z,24.11
2017-07-19T06:05:59.993Z,24.08
2017-07-19T06:07:00.287Z,24.12
2017-07-19T06:08:00.267Z,24.18
2017-07-19T06:09:00.246Z,24.15
2017-07-19T06:10:00.238Z,24.26
2017-07-19T06:10:59.922Z,24.51
2017-07-19T06:11:59.902Z,24.41
2017-07-19T06:13:00.201Z,24.45
2017-07-19T06:14:00.176Z,24.42
2017-07-19T06:14:59.869Z,24.39
2017-07-19T06:16:00.206Z,24.42
2017-07-19T06:17:00.136Z,24.45
2017-07-19T06:18:00.140Z,24.46
2017-07-19T06:19:00.112Z,24.63
2017-07-19T06:20:00.094Z,24.77
2017-07-19T06:21:00.082Z,24.8
2017-07-19T06:22:00.058Z,24.87
2017-07-19T06:22:59.752Z,25.02
2017-07-19T06:24:00.030Z,25.26
2017-07-19T06:25:00.072Z,25.34
2017-07-19T06:26:00.015Z,25.36
2017-07-19T06:26:59.989Z,25.29
2017-07-19T06:27:59.972Z,25.29
2017-07-19T06:28:59.975Z,25.05
2017-07-19T06:29:59.950Z,24.89
2017-07-19T06:30:59.939Z,24.93
2017-07-19T06:31:59.623Z,24.87
2017-07-19T06:32:59.918Z,24.97
2017-07-19T06:33:59.602Z,24.89
2017-07-19T06:34:59.874Z,24.79
2017-07-19T06:35:59.861Z,24.82
2017-07-19T06:36:59.874Z,24.97
2017-07-19T06:37:59.841Z,25.02
2017-07-19T06:38:59.837Z,24.97
2017-07-19T06:39:59.807Z,25.02
2017-07-19T06:40:59.849Z,25.04
2017-07-19T06:41:59.792Z,25.24
2017-07-19T06:42:59.766Z,25.31
2017-07-19T06:43:59.463Z,25.39
2017-07-19T06:44:59.750Z,25.41
2017-07-19T06:45:59.731Z,25.63
2017-07-19T06:46:59.736Z,25.81
2017-07-19T06:47:59.705Z,25.74
2017-07-19T06:48:59.691Z,25.57
2017-07-19T06:49:59.678Z,25.72
2017-07-19T06:50:59.667Z,25.81
2017-07-19T06:51:59.648Z,25.9
2017-07-19T06:52:59.654Z,26.11
2017-07-19T06:53:59.654Z,26.17
2017-07-19T06:54:59.616Z,26.36
2017-07-19T06:55:59.607Z,26.6
2017-07-19T06:56:59.585Z,26.73
2017-07-19T06:57:59.628Z,26.72
2017-07-19T06:58:59.562Z,26.93
2017-07-19T06:59:59.546Z,26.98
2017-07-19T07:00:59.538Z,27.23
2017-07-19T07:01:59.523Z,26.98
2017-07-19T07:02:59.510Z,27.13
2017-07-19T07:03:59.502Z,27.27
2017-07-19T07:04:59.485Z,27.34
2017-07-19T07:05:59.478Z,27.49
2017-07-19T07:06:59.465Z,27.66
2017-07-19T07:07:59.456Z,27.8
2017-07-19T07:08:59.452Z,27.95
2017-07-19T07:09:59.126Z,27.95
2017-07-19T07:10:59.432Z,27.78
2017-07-19T07:11:59.423Z,27.69
2017-07-19T07:12:59.401Z,27.68
2017-07-19T07:13:59.402Z,27.63
2017-07-19T07:14:59.389Z,27.65
2017-07-19T07:15:59.367Z,27.74
2017-07-19T07:16:59.368Z,27.77
2017-07-19T07:17:59.342Z,27.9
2017-07-19T07:18:59.334Z,27.87
2017-07-19T07:19:59.017Z,27.95
2017-07-19T07:20:59.312Z,28.05
2017-07-19T07:21:59.303Z,27.87
2017-07-19T07:22:59.286Z,27.61
2017-07-19T07:23:59.277Z,27.5
2017-07-19T07:24:59.315Z,27.48
2017-07-19T07:25:59.255Z,27.48
2017-07-19T07:26:59.266Z,27.5
2017-07-19T07:27:59.238Z,27.49
2017-07-19T07:28:59.222Z,27.63
2017-07-19T07:29:59.212Z,27.69
2017-07-19T07:30:59.200Z,28.01
2017-07-19T07:31:59.185Z,28.25
2017-07-19T07:32:58.877Z,28.11
2017-07-19T07:33:59.166Z,27.9
2017-07-19T07:34:59.164Z,27.69
2017-07-19T07:35:59.148Z,27.74
2017-07-19T07:36:59.148Z,28.06
2017-07-19T07:37:59.122Z,28.32
2017-07-19T07:38:59.114Z,28.32
2017-07-19T07:39:59.107Z,28.61
2017-07-19T07:40:59.093Z,28.77
2017-07-19T07:41:58.777Z,28.87
2017-07-19T07:42:59.083Z,28.76
2017-07-19T07:43:59.071Z,28.57
2017-07-19T07:44:59.047Z,28.36
2017-07-19T07:45:59.040Z,28.45
2017-07-19T07:46:59.033Z,28.5
2017-07-19T07:47:59.068Z,28.55
2017-07-19T07:48:59.011Z,28.65
2017-07-19T07:49:59.009Z,28.73
2017-07-19T07:50:58.992Z,28.76
2017-07-19T07:51:58.983Z,29.02
2017-07-19T07:52:58.968Z,28.94
2017-07-19T07:53:58.658Z,28.98
2017-07-19T07:54:58.648Z,28.83
2017-07-19T07:55:58.941Z,28.83
2017-07-19T07:56:58.932Z,28.87
2017-07-19T07:57:58.919Z,29
2017-07-19T07:58:58.907Z,28.92
2017-07-19T07:59:58.896Z,28.6
2017-07-19T08:00:58.944Z,28.42
2017-07-19T08:01:58.883Z,28.6
2017-07-19T08:02:58.879Z,28.85
2017-07-19T08:03:58.887Z,28.95
2017-07-19T08:04:58.543Z,29.11
2017-07-19T08:05:58.847Z,28.98
2017-07-19T08:06:58.836Z,28.74
2017-07-19T08:07:58.816Z,28.55
2017-07-19T08:08:58.836Z,28.55
2017-07-19T08:09:58.798Z,28.58
2017-07-19T08:10:58.794Z,28.5
2017-07-19T08:11:58.784Z,28.38
2017-07-19T08:12:58.772Z,28.46
2017-07-19T08:13:58.756Z,28.61
2017-07-19T08:14:58.463Z,28.87
2017-07-19T08:15:58.738Z,28.65
2017-07-19T08:16:58.724Z,28.4
2017-07-19T08:17:58.419Z,28.28
2017-07-19T08:19:58.695Z,28.87
2017-07-19T08:20:58.684Z,28.91
2017-07-19T08:21:58.388Z,29.08
2017-07-19T08:22:58.666Z,29.44
2017-07-19T08:23:58.660Z,29.64
2017-07-19T08:24:58.659Z,29.86
2017-07-19T08:25:58.653Z,30.22
2017-07-19T08:26:58.629Z,30.57
2017-07-19T08:27:58.639Z,30.76
2017-07-19T08:28:58.615Z,30.86
2017-07-19T08:29:58.617Z,30.7
2017-07-19T08:30:58.595Z,30.72
2017-07-19T08:31:58.584Z,30.79
2017-07-19T08:32:58.580Z,30.68
2017-07-19T08:33:58.619Z,30.44
2017-07-19T08:34:58.558Z,30.23
2017-07-19T08:35:58.551Z,30.22
2017-07-19T08:36:58.541Z,30.11
2017-07-19T08:37:58.534Z,29.99
2017-07-19T08:38:58.581Z,30.19
2017-07-19T08:39:58.219Z,30.28
2017-07-19T08:40:58.207Z,30.25
2017-07-19T08:41:58.506Z,30.18
2017-07-19T08:42:58.491Z,30.06
2017-07-19T08:43:58.485Z,30.06
2017-07-19T08:44:58.475Z,29.82
2017-07-19T08:45:58.463Z,29.66
2017-07-19T08:46:58.452Z,29.52
2017-07-19T08:47:58.454Z,29.47
2017-07-19T08:48:58.434Z,29.48
2017-07-19T08:49:58.423Z,29.44
2017-07-19T08:50:58.415Z,29.6
2017-07-19T08:51:58.435Z,29.62
2017-07-19T08:52:58.402Z,29.51
2017-07-19T08:53:58.397Z,29.47
2017-07-19T08:54:58.378Z,29.55
2017-07-19T08:55:58.378Z,29.67
2017-07-19T08:56:58.368Z,29.81
2017-07-19T08:57:58.351Z,30.07
2017-07-19T08:58:58.349Z,30.26
2017-07-19T08:59:58.334Z,30.44
2017-07-19T09:00:58.321Z,30.72
2017-07-19T09:01:58.316Z,30.86
2017-07-19T09:02:58.301Z,30.85
2017-07-19T09:03:58.291Z,30.75
2017-07-19T09:04:58.281Z,30.32
2017-07-19T09:05:58.292Z,29.84
2017-07-19T09:06:58.269Z,29.7
2017-07-19T09:07:58.256Z,29.57
2017-07-19T09:08:58.246Z,29.51
2017-07-19T09:09:57.928Z,29.54
2017-07-19T09:10:58.223Z,29.62
2017-07-19T09:11:58.223Z,29.79
2017-07-19T09:12:58.201Z,29.86
2017-07-19T09:13:58.203Z,29.79
2017-07-19T09:14:58.194Z,30
2017-07-19T09:15:58.181Z,30.08
2017-07-19T09:16:58.173Z,30.06
2017-07-19T09:17:58.163Z,30.08
2017-07-19T09:18:58.255Z,29.91
2017-07-19T09:19:58.142Z,29.88
2017-07-19T09:20:58.142Z,29.78
2017-07-19T09:21:58.125Z,29.76
2017-07-19T09:22:58.233Z,29.69
2017-07-19T09:23:58.103Z,29.55
2017-07-19T09:24:57.792Z,29.6
2017-07-19T09:25:58.084Z,29.7
2017-07-19T09:26:58.081Z,29.67
2017-07-19T09:27:58.069Z,29.71
2017-07-19T09:28:58.052Z,29.71
2017-07-19T09:29:57.743Z,29.81
2017-07-19T09:30:58.082Z,29.99
2017-07-19T09:31:58.029Z,30
2017-07-19T09:32:58.020Z,30.11
2017-07-19T09:33:58.069Z,30.1
2017-07-19T09:34:58.001Z,30.32
2017-07-19T09:35:57.994Z,30.49
2017-07-19T09:36:57.682Z,30.59
2017-07-19T09:37:57.978Z,30.76
2017-07-19T09:38:57.959Z,30.97
2017-07-19T09:39:57.956Z,31.12
2017-07-19T09:40:57.992Z,31.15
2017-07-19T09:41:57.985Z,31.22
2017-07-19T09:42:57.934Z,31.19
2017-07-19T09:43:57.920Z,30.98
2017-07-19T09:44:57.605Z,30.75
2017-07-19T09:45:57.901Z,30.72
2017-07-19T09:46:57.894Z,30.81
2017-07-19T09:47:57.946Z,30.88
2017-07-19T09:48:57.879Z,30.96
2017-07-19T09:49:57.868Z,31.05
2017-07-19T09:50:57.862Z,31.03
2017-07-19T09:51:57.847Z,31.12
2017-07-19T09:52:57.554Z,31.1
2017-07-19T09:53:57.833Z,31.37
2017-07-19T09:54:57.824Z,31.41
2017-07-19T09:55:57.822Z,31.49
2017-07-19T09:56:57.808Z,31.65
2017-07-19T09:57:57.801Z,31.74
2017-07-19T09:58:57.801Z,31.92
2017-07-19T09:59:57.796Z,31.78
2017-07-19T10:00:57.486Z,31.72
2017-07-19T10:01:57.783Z,31.78
2017-07-19T10:02:57.780Z,32.14
2017-07-19T10:03:57.764Z,32.21
2017-07-19T10:04:57.753Z,32.03
2017-07-19T10:05:57.745Z,31.9
2017-07-19T10:06:57.741Z,31.79
2017-07-19T10:07:57.737Z,31.71
2017-07-19T10:08:57.736Z,31.64
2017-07-19T10:09:57.725Z,31.67
2017-07-19T10:10:57.710Z,31.75
2017-07-19T10:11:57.723Z,31.75
2017-07-19T10:12:57.694Z,31.84
2017-07-19T10:13:57.393Z,31.71
2017-07-19T10:14:57.679Z,31.76
2017-07-19T10:15:57.675Z,31.82
2017-07-19T10:16:57.670Z,32.03
2017-07-19T10:17:57.709Z,32.25
2017-07-19T10:18:57.659Z,32.25
2017-07-19T10:19:57.646Z,32.29
2017-07-19T10:20:57.650Z,32.32
2017-07-19T10:21:57.637Z,32.12
2017-07-19T10:22:57.628Z,32.06
2017-07-19T10:23:57.318Z,32.14
2017-07-19T10:24:57.616Z,32.39
2017-07-19T10:25:57.612Z,32.54
2017-07-19T10:26:57.601Z,32.58
2017-07-19T10:27:57.643Z,32.73
2017-07-19T10:28:57.603Z,32.87
2017-07-19T10:29:57.578Z,33
2017-07-19T10:30:57.571Z,32.83
2017-07-19T10:31:57.322Z,32.56
2017-07-19T10:32:57.567Z,32.36
2017-07-19T10:33:57.573Z,32.47
2017-07-19T10:34:57.565Z,32.53
2017-07-19T10:35:57.552Z,32.61
2017-07-19T10:36:57.552Z,32.77
2017-07-19T10:37:57.585Z,32.68
2017-07-19T10:38:57.536Z,32.69
2017-07-19T10:39:57.532Z,32.69
2017-07-19T10:40:57.580Z,32.66
2017-07-19T10:41:57.514Z,32.68
2017-07-19T10:42:57.527Z,32.85
2017-07-19T10:43:57.554Z,32.68
2017-07-19T10:44:57.508Z,32.59
2017-07-19T10:45:57.497Z,32.58
2017-07-19T10:46:57.480Z,32.77
2017-07-19T10:47:57.481Z,32.88
2017-07-19T10:48:57.473Z,32.9
2017-07-19T10:49:57.466Z,32.69
2017-07-19T10:50:57.459Z,32.53
2017-07-19T10:51:57.461Z,32.65
2017-07-19T10:52:57.457Z,32.95
2017-07-19T10:53:57.450Z,33.06
2017-07-19T10:54:57.443Z,33.11
2017-07-19T10:55:57.437Z,33.2
2017-07-19T10:56:57.431Z,33.26
2017-07-19T10:57:57.424Z,33.21
2017-07-19T10:58:57.448Z,33.15
2017-07-19T10:59:57.413Z,33.31
2017-07-19T11:00:57.415Z,33.5
2017-07-19T11:01:57.402Z,33.55
2017-07-19T11:02:57.395Z,33.34
2017-07-19T11:03:57.086Z,33.24
2017-07-19T11:04:57.398Z,33.28
2017-07-19T11:05:57.379Z,33.26
2017-07-19T11:06:57.432Z,33.37
2017-07-19T11:07:57.370Z,33.22
2017-07-19T11:08:57.370Z,33.22
2017-07-19T11:09:57.352Z,33.18
2017-07-19T11:10:57.352Z,32.99
2017-07-19T11:11:57.345Z,32.91
2017-07-19T11:12:57.349Z,32.91
2017-07-19T11:13:57.343Z,33
2017-07-19T11:14:57.341Z,33.03
2017-07-19T11:15:57.354Z,33.17
2017-07-19T11:16:57.326Z,33.14
2017-07-19T11:17:57.322Z,33.02
2017-07-19T11:18:57.313Z,32.69
2017-07-19T11:19:57.305Z,32.35
2017-07-19T11:20:57.297Z,32.09
2017-07-19T11:21:57.292Z,32.03
2017-07-19T11:22:57.286Z,31.82
2017-07-19T11:23:57.291Z,31.49
2017-07-19T11:24:56.980Z,31.45
2017-07-19T11:25:57.268Z,31.34
2017-07-19T11:26:57.256Z,31.3
2017-07-19T11:27:57.273Z,31.27
2017-07-19T11:28:56.941Z,31.19
2017-07-19T11:29:56.942Z,31.13
2017-07-19T11:30:57.222Z,31.01
2017-07-19T11:31:57.217Z,31
2017-07-19T11:32:57.205Z,30.94
2017-07-19T11:33:57.193Z,30.86
2017-07-19T11:34:57.202Z,30.78
2017-07-19T11:35:57.188Z,30.73
2017-07-19T11:36:57.163Z,30.73
2017-07-19T11:37:57.152Z,30.81
2017-07-19T11:38:57.141Z,30.81
2017-07-19T11:39:57.125Z,30.85
2017-07-19T11:40:57.113Z,30.83
2017-07-19T11:41:57.103Z,30.96
2017-07-19T11:42:56.809Z,30.94
2017-07-19T11:43:57.083Z,31.07
2017-07-19T11:44:57.076Z,31.16
2017-07-19T11:45:57.060Z,31.09
2017-07-19T11:46:57.045Z,31.1
2017-07-19T11:47:57.034Z,31.03
2017-07-19T11:48:57.022Z,31.09
2017-07-19T11:49:57.005Z,31.13
2017-07-19T11:50:57.022Z,31.13
2017-07-19T11:51:56.987Z,31.03
2017-07-19T11:52:56.685Z,31.09
2017-07-19T11:53:56.953Z,31.04
2017-07-19T11:54:56.947Z,31.05
2017-07-19T11:55:56.645Z,31.12
2017-07-19T11:56:56.929Z,31.05
2017-07-19T11:57:56.911Z,31.09
2017-07-19T11:58:56.899Z,31.04
2017-07-19T11:59:56.887Z,31.07
2017-07-19T12:00:56.865Z,31
2017-07-19T12:01:56.863Z,31.09
2017-07-19T12:02:56.860Z,31.12
2017-07-19T12:03:56.825Z,31.04
2017-07-19T12:04:56.821Z,31.05
2017-07-19T12:05:56.802Z,31.09
2017-07-19T12:06:56.800Z,31.15
2017-07-19T12:07:56.776Z,31.09
2017-07-19T12:08:56.763Z,31.1
2017-07-19T12:09:56.761Z,31.09
2017-07-19T12:10:56.747Z,31.09
2017-07-19T12:11:56.430Z,31.1
2017-07-19T12:12:56.729Z,31.18
2017-07-19T12:13:56.698Z,31.18
2017-07-19T12:14:56.400Z,31.3
2017-07-19T12:15:56.727Z,31.32
2017-07-19T12:16:56.381Z,31.46
2017-07-19T12:17:56.663Z,31.53
2017-07-19T12:18:56.644Z,31.52
2017-07-19T12:19:56.625Z,31.59
2017-07-19T12:20:56.612Z,31.62
2017-07-19T12:21:56.613Z,31.6
2017-07-19T12:22:56.586Z,31.53
2017-07-19T12:23:56.278Z,31.53
2017-07-19T12:24:56.561Z,31.62
2017-07-19T12:25:56.558Z,31.65
2017-07-19T12:26:56.572Z,31.64
2017-07-19T12:27:56.525Z,31.68
2017-07-19T12:28:56.508Z,31.79
2017-07-19T12:29:56.508Z,31.82
2017-07-19T12:30:56.490Z,31.75
2017-07-19T12:31:56.470Z,31.74
2017-07-19T12:32:56.462Z,31.75
2017-07-19T12:33:56.448Z,31.71
2017-07-19T12:34:56.435Z,31.9
2017-07-19T12:35:56.125Z,31.75
2017-07-19T12:36:56.409Z,31.97
2017-07-19T12:37:56.093Z,31.98
2017-07-19T12:38:56.086Z,31.87
2017-07-19T12:39:56.378Z,31.92
2017-07-19T12:40:56.361Z,31.91
2017-07-19T12:41:56.348Z,31.82
2017-07-19T12:42:56.343Z,31.91
2017-07-19T12:43:56.388Z,31.92
2017-07-19T12:44:56.345Z,32.05
2017-07-19T12:45:56.291Z,32.16
2017-07-19T12:46:56.338Z,32.19
2017-07-19T12:47:56.269Z,32.13
2017-07-19T12:48:55.974Z,32.27
2017-07-19T12:49:56.243Z,32.27
2017-07-19T12:50:56.229Z,32.24
2017-07-19T12:51:56.226Z,32.24
2017-07-19T12:52:56.217Z,32.25
2017-07-19T12:53:56.202Z,32.31
2017-07-19T12:54:56.198Z,32.41
2017-07-19T12:55:55.876Z,32.43